Time;durP1;ratioP1;P1;durP2;ratioP2;P2;SDS_P1;SDS_P2;PMS_P1;PMS_P2;Temp;Humidity;BMP_temperature;BMP_pressure;BME280_temperature;BME280_humidity;BME280_pressure;Samples;Min_cycle;Max_cycle;Signal;HPM_P1;HPM_P2
2023/08/25 00:01:39;;;;;;;8.13;5.57;;;;;20.50;100400.00;;;;5021097;28;20750;-71
2023/08/25 00:04:26;;;;;;;8.53;5.60;;;;;20.40;100405.00;;;;5020122;28;20624;-71
2023/08/25 00:07:13;;;;;;;6.87;5.37;;;;;20.40;100396.00;;;;5020903;28;20933;-70
2023/08/25 00:09:59;;;;;;;11.07;5.03;;;;;20.30;100396.00;;;;5026745;28;20239;-70
2023/08/25 00:12:47;;;;;;;9.17;4.87;;;;;20.30;100401.00;;;;5021821;28;20218;-70
2023/08/25 00:15:33;;;;;;;9.40;4.63;;;;;20.30;100402.00;;;;5020121;28;20297;-71
2023/08/25 00:18:20;;;;;;;7.27;5.20;;;;;20.20;100398.00;;;;5027067;28;20344;-71
2023/08/25 00:21:08;;;;;;;7.63;4.87;;;;;20.30;100404.00;;;;5023680;28;20293;-71
2023/08/25 00:23:55;;;;;;;6.63;4.57;;;;;20.20;100406.00;;;;5021597;28;20216;-71
2023/08/25 00:26:41;;;;;;;10.63;4.90;;;;;20.20;100389.00;;;;5023914;28;20218;-71
2023/08/25 00:29:28;;;;;;;11.27;4.63;;;;;20.20;100396.00;;;;5021414;28;20237;-71
2023/08/25 00:32:15;;;;;;;8.23;4.53;;;;;20.10;100393.00;;;;5022958;28;20215;-71
2023/08/25 00:35:01;;;;;;;7.17;4.33;;;;;20.10;100400.00;;;;5026910;28;20219;-70
2023/08/25 00:37:49;;;;;;;9.50;4.43;;;;;20.10;100400.00;;;;5019190;28;20219;-70
2023/08/25 00:40:36;;;;;;;8.87;4.50;;;;;20.10;100409.00;;;;5024611;28;20314;-69
2023/08/25 00:43:23;;;;;;;5.33;4.17;;;;;20.00;100403.00;;;;5021419;28;20212;-70
2023/08/25 00:46:11;;;;;;;6.87;4.37;;;;;20.00;100405.00;;;;5025445;28;20212;-70
2023/08/25 00:48:58;;;;;;;6.33;4.23;;;;;20.00;100400.00;;;;5024054;28;20650;-70
2023/08/25 00:51:45;;;;;;;11.97;4.97;;;;;20.00;100394.00;;;;5024297;28;20219;-71
2023/08/25 00:54:34;;;;;;;10.00;4.50;;;;;19.90;100395.00;;;;5020102;28;20216;-71
2023/08/25 00:57:21;;;;;;;7.03;4.07;;;;;19.90;100396.00;;;;5021854;28;21376;-70
2023/08/25 01:00:11;;;;;;;5.77;4.20;;;;;19.90;100406.00;;;;5025638;28;20301;-70
2023/08/25 01:02:57;;;;;;;7.10;4.47;;;;;19.80;100404.00;;;;5016777;28;20684;-69
2023/08/25 01:05:48;;;;;;;8.60;4.40;;;;;19.80;100406.00;;;;5023207;28;20285;-70
2023/08/25 01:08:35;;;;;;;9.03;5.10;;;;;19.80;100404.00;;;;5021741;28;20570;-69
2023/08/25 01:11:34;;;;;;;5.70;4.87;;;;;19.70;100427.00;;;;5026242;28;20215;-70
2023/08/25 01:14:27;;;;;;;10.93;6.80;;;;;19.80;100448.00;;;;5019272;28;20281;-70
2023/08/25 01:17:18;;;;;;;15.50;9.90;;;;;19.80;100441.00;;;;5014633;28;20296;-70
2023/08/25 01:20:07;;;;;;;12.73;8.37;;;;;19.80;100427.00;;;;5023095;28;20238;-70
2023/08/25 01:23:04;;;;;;;14.00;8.60;;;;;19.90;100432.00;;;;5025889;28;20219;-70
2023/08/25 01:25:52;;;;;;;10.87;8.43;;;;;19.80;100449.00;;;;5017059;28;20207;-70
2023/08/25 01:28:40;;;;;;;9.97;7.43;;;;;19.80;100439.00;;;;5019342;28;20217;-69
2023/08/25 01:31:27;;;;;;;11.03;6.70;;;;;19.80;100452.00;;;;5019952;28;20990;-70
2023/08/25 01:34:15;;;;;;;10.00;6.93;;;;;19.80;100443.00;;;;5023926;28;20212;-70
2023/08/25 01:37:11;;;;;;;10.10;7.83;;;;;19.70;100437.00;;;;5023592;28;20215;-70
2023/08/25 01:40:04;;;;;;;9.57;7.33;;;;;19.70;100447.00;;;;5023429;28;20270;-70
2023/08/25 01:42:56;;;;;;;9.90;7.37;;;;;19.70;100439.00;;;;5021138;28;20303;-70
2023/08/25 01:45:42;;;;;;;10.50;7.53;;;;;19.60;100441.00;;;;5021257;28;20222;-68
2023/08/25 01:48:32;;;;;;;10.67;7.87;;;;;19.60;100437.00;;;;5019138;28;20233;-70
2023/08/25 01:51:18;;;;;;;13.53;8.10;;;;;19.60;100435.00;;;;5024093;28;20732;-70
2023/08/25 01:54:05;;;;;;;10.43;7.90;;;;;19.50;100430.00;;;;4977141;28;1388247;-71
2023/08/25 01:56:51;;;;;;;9.50;7.53;;;;;19.50;100431.00;;;;5015566;28;20203;-70
2023/08/25 01:59:39;;;;;;;11.50;7.47;;;;;19.50;100439.00;;;;5024771;28;20245;-69
2023/08/25 02:02:26;;;;;;;10.43;7.23;;;;;19.50;100436.00;;;;5019787;28;20219;-69
2023/08/25 02:05:12;;;;;;;9.27;7.20;;;;;19.40;100452.00;;;;5023788;28;20647;-70
2023/08/25 02:07:59;;;;;;;12.63;7.30;;;;;19.40;100445.00;;;;5025454;28;20853;-70
2023/08/25 02:10:45;;;;;;;8.67;6.43;;;;;19.40;100441.00;;;;5014803;28;20239;-69
2023/08/25 02:13:31;;;;;;;9.97;6.70;;;;;19.30;100433.00;;;;5024098;28;20211;-69
2023/08/25 02:16:19;;;;;;;10.17;6.87;;;;;19.30;100436.00;;;;5024859;28;20263;-69
2023/08/25 02:19:06;;;;;;;10.97;6.83;;;;;19.40;100437.00;;;;5025524;28;20723;-69
2023/08/25 02:21:52;;;;;;;9.30;6.47;;;;;19.30;100431.00;;;;5024093;28;20291;-70
2023/08/25 02:24:39;;;;;;;10.47;6.67;;;;;19.30;100432.00;;;;5020633;28;20214;-70
2023/08/25 02:27:26;;;;;;;11.20;6.50;;;;;19.30;100434.00;;;;5025562;28;20345;-69
2023/08/25 02:30:13;;;;;;;8.40;6.63;;;;;19.30;100423.00;;;;5021414;28;21520;-70
2023/08/25 02:33:02;;;;;;;9.47;6.33;;;;;19.20;100410.00;;;;5022936;28;20286;-70
2023/08/25 02:35:48;;;;;;;8.90;6.33;;;;;19.20;100412.00;;;;5025414;28;20245;-70
2023/08/25 02:38:35;;;;;;;9.07;6.43;;;;;19.20;100406.00;;;;5018813;28;20580;-69
2023/08/25 02:41:21;;;;;;;9.37;6.10;;;;;19.20;100402.00;;;;5023081;28;20328;-70
2023/08/25 02:44:08;;;;;;;7.70;6.13;;;;;19.20;100408.00;;;;5025113;28;20581;-72
2023/08/25 02:46:54;;;;;;;9.40;6.50;;;;;19.20;100393.00;;;;5024470;28;20273;-71
2023/08/25 02:49:42;;;;;;;10.07;6.60;;;;;19.20;100404.00;;;;5020578;28;20610;-71
2023/08/25 02:52:28;;;;;;;8.47;6.50;;;;;19.10;100394.00;;;;5019959;28;20915;-69
2023/08/25 02:55:18;;;;;;;8.37;6.50;;;;;19.10;100389.00;;;;5024186;28;20226;-71
2023/08/25 02:58:04;;;;;;;9.47;6.63;;;;;19.10;100385.00;;;;5027245;28;20942;-71
2023/08/25 03:00:51;;;;;;;11.57;6.27;;;;;19.10;100383.00;;;;5028700;28;20238;-71
2023/08/25 03:03:38;;;;;;;8.63;6.27;;;;;19.00;100372.00;;;;5023111;28;20302;-71
2023/08/25 03:06:26;;;;;;;10.63;6.27;;;;;19.00;100367.00;;;;5027671;28;20205;-71
2023/08/25 03:09:12;;;;;;;10.93;6.43;;;;;19.00;100375.00;;;;5025895;28;20305;-71
2023/08/25 03:11:59;;;;;;;8.60;6.40;;;;;18.90;100363.00;;;;5022738;28;20221;-69
2023/08/25 03:14:45;;;;;;;9.33;6.57;;;;;18.90;100361.00;;;;5023890;28;20212;-72
2023/08/25 03:17:32;;;;;;;8.17;5.80;;;;;18.80;100359.00;;;;5023406;28;20270;-71
2023/08/25 03:20:18;;;;;;;9.13;6.37;;;;;18.80;100352.00;;;;5027231;28;20605;-69
2023/08/25 03:23:06;;;;;;;9.37;6.47;;;;;18.90;100349.00;;;;5024716;28;20869;-69
2023/08/25 03:25:52;;;;;;;6.83;5.70;;;;;18.80;100344.00;;;;5024774;28;20209;-69
2023/08/25 03:28:39;;;;;;;9.37;6.07;;;;;18.80;100358.00;;;;5027843;28;20213;-71
2023/08/25 03:31:25;;;;;;;10.97;6.60;;;;;18.80;100344.00;;;;5024056;28;20233;-71
2023/08/25 03:34:12;;;;;;;7.73;6.27;;;;;18.80;100350.00;;;;5026364;28;20213;-72
2023/08/25 03:36:59;;;;;;;9.70;6.20;;;;;18.70;100334.00;;;;5023374;28;20963;-72
2023/08/25 03:39:46;;;;;;;10.90;6.77;;;;;18.70;100345.00;;;;5022600;28;20234;-71
2023/08/25 03:42:33;;;;;;;8.63;6.00;;;;;18.70;100343.00;;;;5018617;28;20259;-71
2023/08/25 03:45:20;;;;;;;8.30;6.30;;;;;18.70;100341.00;;;;5027556;28;20219;-71
2023/08/25 03:48:06;;;;;;;8.30;6.43;;;;;18.60;100333.00;;;;5025578;28;20778;-71
2023/08/25 03:50:53;;;;;;;12.20;6.77;;;;;18.60;100336.00;;;;5025121;28;20234;-70
2023/08/25 03:53:40;;;;;;;10.80;6.30;;;;;18.60;100340.00;;;;5027705;28;20737;-71
2023/08/25 03:56:28;;;;;;;9.40;6.30;;;;;18.50;100335.00;;;;5020372;28;20213;-72
2023/08/25 03:59:14;;;;;;;8.90;6.50;;;;;18.60;100326.00;;;;5026247;28;20361;-70
2023/08/25 04:02:01;;;;;;;14.53;6.70;;;;;18.60;100326.00;;;;5027526;28;20860;-71
2023/08/25 04:04:49;;;;;;;10.60;6.93;;;;;18.60;100326.00;;;;5021883;28;20299;-70
2023/08/25 04:07:35;;;;;;;12.27;6.60;;;;;18.50;100331.00;;;;5021037;28;20757;-71
2023/08/25 04:10:22;;;;;;;10.33;6.77;;;;;18.50;100324.00;;;;5026832;28;20389;-71
2023/08/25 04:13:09;;;;;;;10.33;7.37;;;;;18.40;100334.00;;;;5024992;28;20570;-71
2023/08/25 04:15:57;;;;;;;12.13;7.70;;;;;18.40;100335.00;;;;5027082;28;20217;-71
2023/08/25 04:18:43;;;;;;;12.17;7.40;;;;;18.40;100334.00;;;;5024518;28;20294;-70
2023/08/25 04:21:29;;;;;;;12.13;8.30;;;;;18.40;100332.00;;;;5025025;28;20221;-70
2023/08/25 04:24:17;;;;;;;13.87;8.00;;;;;18.40;100330.00;;;;5025645;28;20218;-71
2023/08/25 04:27:04;;;;;;;9.90;7.33;;;;;18.30;100322.00;;;;5026471;28;20221;-71
2023/08/25 04:29:52;;;;;;;11.37;7.93;;;;;18.30;100324.00;;;;5026957;28;20233;-71
2023/08/25 04:32:38;;;;;;;10.83;7.23;;;;;18.30;100334.00;;;;5012937;28;20217;-70
2023/08/25 04:35:25;;;;;;;10.27;7.70;;;;;18.30;100320.00;;;;5025421;28;20213;-70
2023/08/25 04:38:11;;;;;;;12.83;8.23;;;;;18.30;100334.00;;;;5026023;28;20578;-71
2023/08/25 04:40:58;;;;;;;15.37;9.23;;;;;18.30;100324.00;;;;5025997;28;20237;-71
2023/08/25 04:43:45;;;;;;;13.43;9.23;;;;;18.30;100325.00;;;;5027139;28;20862;-71
2023/08/25 04:46:33;;;;;;;14.67;9.73;;;;;18.30;100313.00;;;;5027091;28;20213;-71
2023/08/25 04:49:19;;;;;;;13.60;9.93;;;;;18.30;100321.00;;;;5016420;28;20260;-70
2023/08/25 04:52:06;;;;;;;13.40;9.07;;;;;18.30;100322.00;;;;5024458;28;20605;-71
2023/08/25 04:54:52;;;;;;;14.83;10.17;;;;;18.30;100317.00;;;;5027051;28;20703;-71
2023/08/25 04:57:41;;;;;;;18.00;10.13;;;;;18.30;100324.00;;;;5019573;28;20218;-70
2023/08/25 05:00:29;;;;;;;13.70;9.13;;;;;18.40;100324.00;;;;5026275;28;20751;-71
2023/08/25 05:03:17;;;;;;;16.27;9.70;;;;;18.40;100325.00;;;;5025832;28;20230;-71
2023/08/25 05:06:03;;;;;;;11.23;8.60;;;;;18.40;100325.00;;;;5026536;28;20201;-71
2023/08/25 05:08:50;;;;;;;13.07;9.30;;;;;18.50;100320.00;;;;5026026;28;20202;-70
2023/08/25 05:11:37;;;;;;;13.03;8.57;;;;;18.40;100317.00;;;;5018740;28;20233;-70
2023/08/25 05:14:24;;;;;;;15.20;8.97;;;;;18.40;100325.00;;;;5026314;28;20586;-72
2023/08/25 05:17:11;;;;;;;13.53;9.60;;;;;18.40;100333.00;;;;5025930;28;20248;-70
2023/08/25 05:19:58;;;;;;;15.23;9.07;;;;;18.40;100320.00;;;;5025979;28;20229;-70
2023/08/25 05:22:45;;;;;;;15.40;9.53;;;;;18.50;100324.00;;;;5020092;28;20213;-71
2023/08/25 05:25:31;;;;;;;14.27;9.17;;;;;18.50;100315.00;;;;5025862;28;20662;-70
2023/08/25 05:28:18;;;;;;;15.17;9.47;;;;;18.60;100312.00;;;;5024208;28;20222;-70
2023/08/25 05:31:04;;;;;;;19.60;9.37;;;;;18.60;100303.00;;;;5026176;28;20237;-71
2023/08/25 05:33:51;;;;;;;13.67;9.03;;;;;18.60;100307.00;;;;5020542;28;20244;-71
2023/08/25 05:36:39;;;;;;;11.83;8.47;;;;;18.70;100310.00;;;;5016378;28;20264;-69
2023/08/25 05:39:25;;;;;;;13.03;8.87;;;;;18.70;100308.00;;;;5018544;28;20302;-71
2023/08/25 05:42:12;;;;;;;13.07;8.80;;;;;18.80;100304.00;;;;5023844;28;20782;-71
2023/08/25 05:44:58;;;;;;;13.13;8.47;;;;;18.80;100306.00;;;;5016939;28;20217;-71
2023/08/25 05:47:45;;;;;;;10.93;8.53;;;;;18.90;100311.00;;;;5024427;28;20209;-71
2023/08/25 05:50:31;;;;;;;15.03;8.40;;;;;19.00;100315.00;;;;5018902;28;20232;-71
2023/08/25 05:53:19;;;;;;;17.97;9.00;;;;;19.00;100306.00;;;;5020324;28;20214;-71
2023/08/25 05:56:05;;;;;;;17.87;10.30;;;;;19.10;100310.00;;;;5020889;28;20586;-71
2023/08/25 05:58:52;;;;;;;22.67;12.80;;;;;19.10;100319.00;;;;5021190;28;20257;-71
2023/08/25 06:01:38;;;;;;;24.77;13.07;;;;;19.20;100314.00;;;;5017577;28;20214;-70
2023/08/25 06:04:26;;;;;;;20.93;11.47;;;;;19.20;100301.00;;;;5020143;28;20218;-71
2023/08/25 06:07:12;;;;;;;16.50;9.93;;;;;19.30;100295.00;;;;5015428;28;20242;-70
2023/08/25 06:10:00;;;;;;;17.03;10.03;;;;;19.40;100291.00;;;;5020175;28;20235;-71
2023/08/25 06:12:47;;;;;;;16.33;10.77;;;;;19.40;100287.00;;;;5019081;28;20672;-69
2023/08/25 06:15:34;;;;;;;22.20;13.57;;;;;19.40;100288.00;;;;5025561;28;20218;-70
2023/08/25 06:18:20;;;;;;;20.73;13.10;;;;;19.50;100299.00;;;;5025436;28;20209;-70
2023/08/25 06:21:07;;;;;;;20.77;12.20;;;;;19.50;100294.00;;;;5020787;28;20727;-70
2023/08/25 06:23:54;;;;;;;23.47;15.57;;;;;19.60;100290.00;;;;5025082;28;20229;-71
2023/08/25 06:26:42;;;;;;;25.83;14.90;;;;;19.70;100288.00;;;;5023144;28;20688;-70
2023/08/25 06:29:29;;;;;;;35.90;17.30;;;;;19.80;100294.00;;;;5026758;28;20273;-70
2023/08/25 06:32:16;;;;;;;35.40;18.80;;;;;19.80;100293.00;;;;5024008;28;20751;-70
2023/08/25 06:35:03;;;;;;;27.67;17.17;;;;;19.90;100300.00;;;;5022267;28;20208;-71
2023/08/25 06:37:50;;;;;;;30.70;17.07;;;;;20.00;100291.00;;;;5022504;28;20223;-70
2023/08/25 06:40:37;;;;;;;28.17;17.20;;;;;20.00;100287.00;;;;5029071;28;20706;-70
2023/08/25 06:43:25;;;;;;;29.20;17.07;;;;;20.10;100282.00;;;;5022090;28;20235;-72
2023/08/25 06:46:12;;;;;;;28.90;16.20;;;;;20.20;100281.00;;;;5029250;28;20283;-71
2023/08/25 06:48:58;;;;;;;25.73;15.50;;;;;20.30;100281.00;;;;5023651;28;20886;-71
2023/08/25 06:51:45;;;;;;;25.00;15.47;;;;;20.40;100296.00;;;;5027448;28;20294;-70
2023/08/25 06:54:31;;;;;;;25.27;15.93;;;;;20.40;100307.00;;;;5028699;28;20223;-71
2023/08/25 06:57:18;;;;;;;28.27;16.20;;;;;20.60;100302.00;;;;5026585;28;20219;-71
2023/08/25 07:00:07;;;;;;;26.23;15.87;;;;;20.80;100307.00;;;;5023586;28;20239;-70
2023/08/25 07:02:54;;;;;;;29.50;18.20;;;;;21.00;100330.00;;;;5025661;28;20615;-71
2023/08/25 07:05:41;;;;;;;35.67;19.60;;;;;21.10;100308.00;;;;5027524;28;20718;-68
2023/08/25 07:08:27;;;;;;;32.73;18.87;;;;;21.20;100307.00;;;;5027969;28;20278;-69
2023/08/25 07:11:14;;;;;;;32.57;18.53;;;;;21.30;100313.00;;;;5028036;28;20250;-71
2023/08/25 07:14:00;;;;;;;31.67;19.20;;;;;21.30;100305.00;;;;5025541;28;20217;-69
2023/08/25 07:16:48;;;;;;;30.70;18.93;;;;;21.20;100297.00;;;;5021811;28;20336;-69
2023/08/25 07:19:35;;;;;;;33.63;19.97;;;;;21.20;100287.00;;;;5024109;28;20240;-68
2023/08/25 07:22:21;;;;;;;33.17;20.47;;;;;21.10;100293.00;;;;5021268;28;20214;-68
2023/08/25 07:25:09;;;;;;;31.77;19.27;;;;;21.00;100298.00;;;;5024768;28;20210;-69
2023/08/25 07:27:55;;;;;;;32.77;19.47;;;;;20.90;100300.00;;;;5021983;28;20284;-69
2023/08/25 07:30:42;;;;;;;31.57;20.57;;;;;20.90;100288.00;;;;5021343;28;20224;-68
2023/08/25 07:33:29;;;;;;;34.83;21.27;;;;;20.80;100273.00;;;;5023788;28;20253;-69
2023/08/25 07:36:17;;;;;;;34.67;21.10;;;;;20.70;100258.00;;;;5027501;28;20690;-72
2023/08/25 07:39:04;;;;;;;34.43;21.10;;;;;20.60;100256.00;;;;5020173;28;20705;-70
2023/08/25 07:41:51;;;;;;;35.23;21.43;;;;;20.60;100288.00;;;;5021032;28;20297;-68
2023/08/25 07:44:38;;;;;;;37.10;22.07;;;;;20.50;100297.00;;;;5022558;28;20253;-70
2023/08/25 07:47:25;;;;;;;43.50;23.57;;;;;20.50;100295.00;;;;5027520;28;20219;-70
2023/08/25 07:50:13;;;;;;;46.77;24.07;;;;;20.50;100319.00;;;;5022671;28;20261;-70
2023/08/25 07:53:00;;;;;;;41.40;22.87;;;;;20.40;100320.00;;;;5028016;28;20873;-71
2023/08/25 07:55:47;;;;;;;40.33;23.20;;;;;20.40;100339.00;;;;5025132;28;20212;-70
2023/08/25 07:58:33;;;;;;;48.67;24.17;;;;;20.40;100353.00;;;;5027332;28;20206;-70
2023/08/25 08:01:20;;;;;;;44.23;23.40;;;;;20.40;100370.00;;;;5023893;28;20212;-70
2023/08/25 08:04:07;;;;;;;41.07;22.83;;;;;20.40;100415.00;;;;5021978;28;20351;-70
2023/08/25 08:06:56;;;;;;;41.50;22.00;;;;;20.30;100398.00;;;;5020238;28;20910;-71
2023/08/25 08:09:42;;;;;;;42.50;23.27;;;;;20.40;100362.00;;;;5023511;28;20613;-71
2023/08/25 08:12:28;;;;;;;57.47;26.37;;;;;20.40;100332.00;;;;5027951;28;20741;-71
2023/08/25 08:15:15;;;;;;;58.77;26.83;;;;;20.30;100307.00;;;;5024347;28;20227;-71
2023/08/25 08:18:01;;;;;;;56.30;25.70;;;;;20.30;100282.00;;;;5020395;28;20224;-71
2023/08/25 08:20:48;;;;;;;56.53;25.67;;;;;20.20;100268.00;;;;5026833;28;20236;-71
2023/08/25 08:23:36;;;;;;;58.40;25.47;;;;;20.20;100291.00;;;;5025388;28;20227;-71
2023/08/25 08:26:22;;;;;;;58.77;26.20;;;;;20.30;100300.00;;;;5021682;28;20215;-70
2023/08/25 08:29:09;;;;;;;56.20;26.97;;;;;20.30;100301.00;;;;5026946;28;20276;-70
2023/08/25 08:31:56;;;;;;;55.90;25.67;;;;;20.20;100285.00;;;;5025975;28;20212;-70
2023/08/25 08:34:43;;;;;;;56.27;25.47;;;;;20.20;100270.00;;;;5028196;28;20211;-71
2023/08/25 08:37:30;;;;;;;54.17;25.47;;;;;20.30;100270.00;;;;5037696;28;20217;-70
2023/08/25 08:40:20;;;;;;;45.23;25.07;;;;;20.20;100294.00;;;;5037855;28;20692;-70
2023/08/25 08:43:10;;;;;;;46.80;24.83;;;;;20.30;100304.00;;;;5032479;28;20299;-70
2023/08/25 08:45:57;;;;;;;54.27;24.67;;;;;20.20;100325.00;;;;5036468;28;20211;-70
2023/08/25 08:48:44;;;;;;;59.07;24.80;;;;;20.20;100351.00;;;;5039927;28;20212;-70
2023/08/25 08:51:32;;;;;;;51.57;23.20;;;;;20.20;100364.00;;;;5039584;28;20276;-70
2023/08/25 08:54:19;;;;;;;43.67;22.20;;;;;20.20;100375.00;;;;5029511;28;20334;-70
2023/08/25 08:57:08;;;;;;;44.13;23.00;;;;;20.20;100401.00;;;;5020096;28;20286;-70
2023/08/25 08:59:54;;;;;;;49.87;23.23;;;;;20.20;100392.00;;;;5024804;28;20232;-70
2023/08/25 09:02:43;;;;;;;50.27;23.03;;;;;20.30;100390.00;;;;5025079;28;20217;-70
2023/08/25 09:05:30;;;;;;;45.27;23.00;;;;;20.30;100410.00;;;;5026678;28;20223;-69
2023/08/25 09:08:17;;;;;;;44.30;22.03;;;;;20.40;100416.00;;;;5021411;28;20219;-69
2023/08/25 09:11:05;;;;;;;44.77;21.03;;;;;20.40;100397.00;;;;5019082;28;20362;-70
2023/08/25 09:13:58;;;;;;;39.07;19.93;;;;;20.40;100378.00;;;;5026000;28;20720;-70
2023/08/25 09:16:46;;;;;;;35.63;19.67;;;;;20.40;100363.00;;;;5026279;28;20622;-70
2023/08/25 09:19:34;;;;;;;29.87;17.57;;;;;20.50;100351.00;;;;5018379;28;20693;-70
2023/08/25 09:22:20;;;;;;;28.17;16.57;;;;;20.50;100366.00;;;;5019704;28;20215;-71
2023/08/25 09:25:07;;;;;;;30.00;18.00;;;;;20.70;100377.00;;;;5019855;28;20220;-70
2023/08/25 09:27:58;;;;;;;35.20;18.03;;;;;20.70;100368.00;;;;5026103;28;20213;-68
2023/08/25 09:30:46;;;;;;;29.07;16.33;;;;;20.80;100364.00;;;;5024778;28;20330;-70
2023/08/25 09:33:34;;;;;;;25.47;14.43;;;;;20.80;100353.00;;;;5023966;28;20241;-71
2023/08/25 09:36:20;;;;;;;30.47;15.87;;;;;20.80;100337.00;;;;5021223;28;20750;-71
2023/08/25 09:39:07;;;;;;;24.27;15.03;;;;;20.70;100320.00;;;;5020188;28;20287;-70
2023/08/25 09:41:53;;;;;;;22.20;15.07;;;;;20.70;100321.00;;;;5026232;28;20264;-71
2023/08/25 09:44:40;;;;;;;23.37;15.20;;;;;20.70;100325.00;;;;5021110;28;20225;-71
2023/08/25 09:47:32;;;;;;;20.23;13.47;;;;;20.70;100346.00;;;;5025208;28;20242;-70
2023/08/25 09:50:19;;;;;;;22.30;13.87;;;;;20.60;100335.00;;;;5020592;28;20244;-70
2023/08/25 09:53:07;;;;;;;19.63;13.10;;;;;20.60;100324.00;;;;5018935;28;20235;-71
2023/08/25 09:56:01;;;;;;;17.10;12.37;;;;;20.60;100353.00;;;;5017560;28;20275;-70
2023/08/25 09:58:49;;;;;;;19.97;13.13;;;;;20.50;100370.00;;;;5023581;28;20211;-69
2023/08/25 10:01:37;;;;;;;20.47;12.80;;;;;20.50;100344.00;;;;5026031;28;20235;-70
2023/08/25 10:04:25;;;;;;;15.37;11.40;;;;;20.40;100316.00;;;;5023378;28;20367;-71
2023/08/25 10:07:13;;;;;;;17.17;10.67;;;;;20.40;100338.00;;;;5023833;28;20800;-70
2023/08/25 10:10:02;;;;;;;18.07;10.70;;;;;20.40;100354.00;;;;5025842;28;20302;-71
2023/08/25 10:12:49;;;;;;;19.23;11.30;;;;;20.40;100371.00;;;;5027917;28;20355;-70
2023/08/25 10:15:38;;;;;;;17.97;10.90;;;;;20.40;100388.00;;;;5029193;28;20214;-72
2023/08/25 10:18:26;;;;;;;15.97;10.10;;;;;20.40;100378.00;;;;5023395;28;20225;-70
2023/08/25 10:21:18;;;;;;;14.87;10.40;;;;;20.30;100365.00;;;;5025049;28;20868;-70
2023/08/25 10:24:07;;;;;;;13.47;10.63;;;;;20.30;100354.00;;;;5029887;28;20213;-70
2023/08/25 10:26:54;;;;;;;16.53;10.73;;;;;20.30;100350.00;;;;5027037;28;20275;-70
2023/08/25 10:29:41;;;;;;;19.13;10.23;;;;;20.30;100341.00;;;;5029541;28;20244;-70
2023/08/25 10:32:48;;;;;;;14.83;10.03;;;;;20.30;100341.00;;;;5029648;28;20241;-69
2023/08/25 10:35:40;;;;;;;12.90;10.00;;;;;20.30;100341.00;;;;5022429;28;20264;-70
2023/08/25 10:38:39;;;;;;;15.27;10.77;;;;;20.20;100365.00;;;;5024596;28;20310;-70
2023/08/25 10:41:28;;;;;;;14.67;9.73;;;;;20.20;100371.00;;;;5029121;28;20220;-70
2023/08/25 10:44:21;;;;;;;15.03;9.60;;;;;20.20;100373.00;;;;5022710;28;20948;-68
2023/08/25 10:47:08;;;;;;;12.50;10.13;;;;;20.20;100365.00;;;;5023323;28;20230;-69
2023/08/25 10:49:56;;;;;;;15.73;9.17;;;;;20.10;100363.00;;;;5029351;28;20290;-69
2023/08/25 10:52:43;;;;;;;13.57;9.13;;;;;20.20;100364.00;;;;5019667;28;20211;-70
2023/08/25 10:55:33;;;;;;;11.57;8.10;;;;;20.20;100353.00;;;;5028479;28;20234;-70
2023/08/25 10:58:20;;;;;;;10.90;7.67;;;;;20.10;100354.00;;;;5028687;28;20767;-71
2023/08/25 11:01:07;;;;;;;11.23;7.40;;;;;20.10;100348.00;;;;5028948;28;20338;-70
2023/08/25 11:04:07;;;;;;;12.07;6.90;;;;;20.10;100359.00;;;;5023782;28;20210;-70
2023/08/25 11:06:55;;;;;;;11.77;6.87;;;;;20.00;100355.00;;;;5025049;28;20212;-70
2023/08/25 11:09:47;;;;;;;11.63;6.63;;;;;20.00;100360.00;;;;5028180;28;20780;-69
2023/08/25 11:12:35;;;;;;;14.17;7.03;;;;;20.00;100364.00;;;;5028659;28;20640;-70
2023/08/25 11:15:23;;;;;;;10.97;6.87;;;;;20.00;100362.00;;;;5021800;28;20230;-70
2023/08/25 11:18:09;;;;;;;10.47;7.03;;;;;20.00;100359.00;;;;5019634;28;20701;-70
2023/08/25 11:20:57;;;;;;;10.00;7.10;;;;;20.00;100371.00;;;;5027643;28;20290;-70
2023/08/25 11:23:45;;;;;;;10.33;6.47;;;;;20.00;100351.00;;;;5026253;28;20220;-69
2023/08/25 11:26:34;;;;;;;9.47;6.30;;;;;20.00;100326.00;;;;5028536;28;20299;-70
2023/08/25 11:29:23;;;;;;;9.60;5.73;;;;;19.80;100292.00;;;;5015507;28;20234;-71
2023/08/25 11:32:12;;;;;;;11.17;6.03;;;;;19.80;100244.00;;;;5028065;28;20587;-70
2023/08/25 11:35:03;;;;;;;5.63;4.97;;;;;19.90;100249.00;;;;5026634;28;20229;-70
2023/08/25 11:37:50;;;;;;;14.10;5.70;;;;;20.00;100266.00;;;;5025368;28;20325;-69
2023/08/25 11:40:39;;;;;;;7.67;5.10;;;;;20.20;100283.00;;;;5021628;28;20317;-71
2023/08/25 11:43:32;;;;;;;10.07;5.37;;;;;20.30;100313.00;;;;5024738;28;20700;-70
2023/08/25 11:46:19;;;;;;;8.27;5.00;;;;;20.50;100375.00;;;;5021504;28;20587;-70
2023/08/25 11:49:07;;;;;;;9.87;4.80;;;;;20.60;100378.00;;;;5027414;28;20215;-70
2023/08/25 11:51:54;;;;;;;10.90;4.67;;;;;20.50;100365.00;;;;5027602;28;20715;-70
2023/08/25 11:54:47;;;;;;;5.93;4.30;;;;;20.60;100346.00;;;;5027608;28;20231;-70
2023/08/25 11:57:34;;;;;;;5.93;3.87;;;;;20.50;100348.00;;;;5022735;28;20302;-70
2023/08/25 12:00:21;;;;;;;8.67;4.00;;;;;20.60;100361.00;;;;5015878;28;20768;-70
2023/08/25 12:03:13;;;;;;;9.20;4.40;;;;;20.60;100351.00;;;;5027511;28;20228;-71
2023/08/25 12:06:04;;;;;;;9.57;3.60;;;;;20.50;100323.00;;;;5024920;28;20279;-70
2023/08/25 12:08:51;;;;;;;5.53;3.70;;;;;20.40;100303.00;;;;5027334;28;20736;-70
2023/08/25 12:11:37;;;;;;;5.70;3.70;;;;;20.50;100268.00;;;;5027874;28;20223;-71
2023/08/25 12:14:25;;;;;;;5.60;3.37;;;;;20.60;100213.00;;;;5027280;28;20322;-70
2023/08/25 12:17:21;;;;;;;6.13;3.77;;;;;20.70;100241.00;;;;5026595;28;20704;-70
2023/08/25 12:20:14;;;;;;;7.77;3.70;;;;;20.80;100248.00;;;;5026377;28;20236;-70
2023/08/25 12:23:01;;;;;;;6.67;4.03;;;;;21.00;100266.00;;;;5027575;28;20216;-70
2023/08/25 12:25:51;;;;;;;6.90;3.97;;;;;21.20;100251.00;;;;5023780;28;20220;-69
2023/08/25 12:28:38;;;;;;;6.07;3.37;;;;;21.30;100286.00;;;;5021132;28;20744;-70
2023/08/25 12:31:25;;;;;;;7.90;3.53;;;;;21.50;100300.00;;;;5022280;28;20215;-70
2023/08/25 12:34:12;;;;;;;5.47;3.27;;;;;21.70;100301.00;;;;5025288;28;20295;-69
2023/08/25 12:37:00;;;;;;;4.80;2.80;;;;;21.90;100298.00;;;;5024659;28;20359;-70
2023/08/25 12:39:46;;;;;;;4.53;2.87;;;;;22.10;100300.00;;;;5026931;28;20898;-70
2023/08/25 12:42:36;;;;;;;3.70;2.80;;;;;22.10;100285.00;;;;5024247;28;20213;-70
2023/08/25 12:45:24;;;;;;;3.83;2.70;;;;;22.10;100272.00;;;;5020241;28;20217;-70
2023/08/25 12:48:10;;;;;;;6.53;2.90;;;;;22.30;100254.00;;;;5023397;28;20208;-70
2023/08/25 12:50:57;;;;;;;6.03;3.20;;;;;22.40;100257.00;;;;5021808;28;20380;-70
2023/08/25 12:53:44;;;;;;;5.50;2.50;;;;;22.40;100265.00;;;;5019025;28;20323;-70
2023/08/25 12:56:31;;;;;;;5.33;2.80;;;;;22.60;100261.00;;;;5020672;28;20232;-70
2023/08/25 12:59:19;;;;;;;4.10;2.67;;;;;22.70;100242.00;;;;5026695;28;20229;-71
2023/08/25 13:02:06;;;;;;;3.80;2.10;;;;;23.20;100257.00;;;;5025113;28;20213;-68
2023/08/25 13:04:53;;;;;;;3.90;2.60;;;;;23.20;100244.00;;;;5025884;28;20749;-72
2023/08/25 13:07:40;;;;;;;3.30;2.33;;;;;23.30;100216.00;;;;5021730;28;20345;-70
2023/08/25 13:10:28;;;;;;;4.17;2.40;;;;;23.30;100217.00;;;;5019350;28;20736;-71
2023/08/25 13:13:15;;;;;;;2.87;2.30;;;;;23.40;100235.00;;;;5026180;28;20713;-71
2023/08/25 13:16:02;;;;;;;3.17;2.60;;;;;23.70;100227.00;;;;5021914;28;20323;-71
2023/08/25 13:18:49;;;;;;;3.03;2.27;;;;;24.10;100213.00;;;;5026920;28;20217;-72
2023/08/25 13:21:35;;;;;;;2.47;1.90;;;;;24.20;100211.00;;;;5025011;28;20220;-71
2023/08/25 13:24:22;;;;;;;2.90;2.00;;;;;24.70;100208.00;;;;5026655;28;20714;-71
2023/08/25 13:27:10;;;;;;;4.43;2.37;;;;;24.80;100199.00;;;;5026372;28;20210;-71
2023/08/25 13:29:56;;;;;;;3.20;1.80;;;;;25.10;100212.00;;;;5026028;28;20815;-71
2023/08/25 13:32:43;;;;;;;2.23;1.90;;;;;25.30;100211.00;;;;5025163;28;20213;-72
2023/08/25 13:35:30;;;;;;;3.30;1.85;;;;;25.40;100216.00;;;;5019915;28;20316;-71
2023/08/25 13:38:16;;;;;;;2.60;1.90;;;;;25.60;100224.00;;;;5024769;28;20245;-71